createdAt,value
2023-03-24T00:02:22.667Z,4.97
2023-03-24T00:05:10.921Z,5.70
2023-03-24T00:08:02.393Z,5.03
2023-03-24T00:10:49.290Z,6.00
2023-03-24T00:13:38.130Z,5.33
2023-03-24T00:16:24.929Z,4.40
2023-03-24T00:19:13.162Z,4.10
2023-03-24T00:22:00.658Z,5.10
2023-03-24T00:24:49.676Z,5.33
2023-03-24T00:27:37.021Z,4.80
2023-03-24T00:30:23.474Z,4.47
2023-03-24T00:33:10.341Z,4.90
2023-03-24T00:35:57.891Z,4.70
2023-03-24T00:38:44.519Z,4.83
2023-03-24T00:41:31.935Z,4.40
2023-03-24T00:44:19.141Z,4.20
2023-03-24T00:47:05.958Z,6.47
2023-03-24T00:49:53.824Z,5.10
2023-03-24T00:52:44.193Z,5.33
2023-03-24T00:55:32.204Z,5.30
2023-03-24T00:58:20.236Z,4.90
2023-03-24T01:01:07.386Z,4.70
2023-03-24T01:03:54.071Z,5.03
2023-03-24T01:06:41.206Z,5.70
2023-03-24T01:09:27.924Z,4.97
2023-03-24T01:12:14.028Z,5.00
2023-03-24T01:15:02.821Z,4.37
2023-03-24T01:17:49.926Z,5.47
2023-03-24T01:20:36.732Z,5.57
2023-03-24T01:23:23.817Z,5.50
2023-03-24T01:26:11.357Z,4.23
2023-03-24T01:28:57.867Z,4.73
2023-03-24T01:31:45.517Z,5.00
2023-03-24T01:34:32.122Z,4.37
2023-03-24T01:37:18.388Z,5.27
2023-03-24T01:40:07.527Z,4.13
2023-03-24T01:42:53.696Z,5.17
2023-03-24T01:45:52.916Z,4.27
2023-03-24T01:48:42.903Z,4.53
2023-03-24T01:51:31.630Z,4.57
2023-03-24T01:54:19.664Z,5.13
2023-03-24T01:57:09.161Z,6.53
2023-03-24T01:59:57.268Z,5.00
2023-03-24T02:02:46.628Z,4.73
2023-03-24T02:05:36.611Z,4.50
2023-03-24T02:08:26.177Z,4.90
2023-03-24T02:11:13.170Z,4.20
2023-03-24T02:13:59.785Z,5.20
2023-03-24T02:17:04.142Z,5.23
2023-03-24T02:20:00.465Z,5.60
2023-03-24T02:23:04.599Z,5.77
2023-03-24T02:26:09.565Z,5.27
2023-03-24T02:29:00.866Z,5.30
2023-03-24T02:31:55.238Z,5.13
2023-03-24T02:34:59.398Z,5.00
2023-03-24T02:38:00.988Z,4.60
2023-03-24T02:40:50.485Z,4.47
2023-03-24T02:43:42.699Z,4.70
2023-03-24T02:46:33.627Z,5.03
2023-03-24T02:49:22.947Z,4.70
2023-03-24T02:52:11.757Z,5.67
2023-03-24T02:54:59.446Z,3.97
2023-03-24T02:57:51.478Z,4.53
2023-03-24T03:00:41.887Z,5.47
2023-03-24T03:03:30.051Z,5.27
2023-03-24T03:06:18.841Z,5.03
2023-03-24T03:09:07.862Z,5.17
2023-03-24T03:11:55.418Z,4.63
2023-03-24T03:14:45.402Z,2.73
2023-03-24T03:17:34.093Z,3.80
2023-03-24T03:20:23.322Z,4.60
2023-03-24T03:23:12.481Z,5.00
2023-03-24T03:26:05.638Z,4.33
2023-03-24T03:28:58.043Z,3.93
2023-03-24T03:31:50.981Z,4.57
2023-03-24T03:34:40.465Z,4.77
2023-03-24T03:37:29.297Z,4.73
2023-03-24T03:40:17.933Z,5.03
2023-03-24T03:43:05.433Z,4.73
2023-03-24T03:45:51.915Z,4.13
2023-03-24T03:48:40.468Z,3.57
2023-03-24T03:51:27.161Z,3.17
2023-03-24T03:54:15.169Z,4.27
2023-03-24T03:57:01.787Z,3.50
2023-03-24T03:59:48.689Z,4.87
2023-03-24T04:02:40.950Z,5.33
2023-03-24T04:05:31.261Z,5.73
2023-03-24T04:08:25.289Z,4.57
2023-03-24T04:11:22.769Z,4.60
2023-03-24T04:14:20.359Z,5.17
2023-03-24T04:17:12.903Z,3.80
2023-03-24T04:20:05.719Z,4.27
2023-03-24T04:23:03.176Z,4.70
2023-03-24T04:25:56.817Z,5.40
2023-03-24T04:28:44.392Z,4.47
2023-03-24T04:31:34.339Z,5.00
2023-03-24T04:34:21.949Z,5.13
2023-03-24T04:37:12.639Z,4.80
2023-03-24T04:40:01.048Z,4.73
2023-03-24T04:42:49.347Z,5.37
2023-03-24T04:45:36.354Z,4.33
2023-03-24T04:48:22.705Z,4.97
2023-03-24T04:51:10.539Z,4.10
2023-03-24T04:53:56.914Z,5.70
2023-03-24T04:56:47.664Z,5.03
2023-03-24T04:59:34.744Z,5.37
2023-03-24T05:02:21.897Z,7.53
2023-03-24T05:05:09.185Z,8.67
2023-03-24T05:07:57.027Z,6.77
2023-03-24T05:10:43.695Z,6.27
2023-03-24T05:13:31.362Z,6.50
2023-03-24T05:16:17.828Z,5.93
2023-03-24T05:19:04.756Z,6.33
2023-03-24T05:21:51.568Z,7.23
2023-03-24T05:24:38.145Z,6.70
2023-03-24T05:27:24.368Z,5.70
2023-03-24T05:30:12.757Z,5.83
2023-03-24T05:32:59.018Z,5.73
2023-03-24T05:35:46.005Z,5.77
2023-03-24T05:38:32.562Z,5.60
2023-03-24T05:41:18.638Z,5.70
2023-03-24T05:44:05.191Z,7.03
2023-03-24T05:46:52.874Z,5.90
2023-03-24T05:49:39.448Z,5.53
2023-03-24T05:52:28.265Z,5.53
2023-03-24T05:55:16.137Z,5.90
2023-03-24T05:58:03.778Z,5.60
2023-03-24T06:00:50.097Z,6.27
2023-03-24T06:03:39.224Z,5.60
2023-03-24T06:06:26.352Z,5.27
2023-03-24T06:09:14.842Z,7.97
2023-03-24T06:12:01.138Z,6.57
2023-03-24T06:14:47.372Z,5.93
2023-03-24T06:17:34.056Z,5.50
2023-03-24T06:20:21.867Z,5.40
2023-03-24T06:23:07.855Z,5.13
2023-03-24T06:25:54.330Z,5.80
2023-03-24T06:28:42.337Z,5.00
2023-03-24T06:31:30.399Z,5.30
2023-03-24T06:34:17.069Z,5.07
2023-03-24T06:37:04.754Z,4.47
2023-03-24T06:39:51.075Z,3.60
2023-03-24T06:42:37.729Z,4.40
2023-03-24T06:45:23.964Z,4.67
2023-03-24T06:48:10.704Z,3.63
2023-03-24T06:50:57.440Z,3.07
2023-03-24T06:53:45.812Z,3.03
2023-03-24T06:56:32.530Z,3.47
2023-03-24T06:59:23.750Z,3.20
2023-03-24T07:02:10.852Z,3.17
2023-03-24T07:04:58.974Z,3.10
2023-03-24T07:10:36.486Z,2.80
2023-03-24T07:13:22.996Z,2.63
2023-03-24T07:16:09.755Z,2.67
2023-03-24T07:18:56.405Z,3.40
2023-03-24T07:21:42.443Z,2.97
2023-03-24T07:24:31.611Z,3.03
2023-03-24T07:27:19.566Z,2.90
2023-03-24T07:30:06.169Z,3.10
2023-03-24T07:32:54.775Z,3.27
2023-03-24T07:35:41.821Z,2.83
2023-03-24T07:38:28.118Z,2.57
2023-03-24T07:41:14.364Z,2.90
2023-03-24T07:44:02.100Z,2.40
2023-03-24T07:46:48.550Z,2.63
2023-03-24T07:49:34.916Z,2.40
2023-03-24T07:52:21.135Z,2.57
2023-03-24T07:55:09.765Z,2.80
2023-03-24T07:57:57.342Z,2.50
2023-03-24T08:00:45.294Z,2.87
2023-03-24T08:03:32.085Z,3.40
2023-03-24T08:06:18.777Z,2.77
2023-03-24T08:09:05.445Z,2.33
2023-03-24T08:11:52.103Z,2.80
2023-03-24T08:14:38.476Z,2.40
2023-03-24T08:17:26.317Z,2.40
2023-03-24T08:20:15.128Z,3.10
2023-03-24T08:23:04.776Z,2.90
2023-03-24T08:25:51.781Z,3.00
2023-03-24T08:28:39.484Z,2.37
2023-03-24T08:31:25.855Z,3.00
2023-03-24T08:34:13.681Z,2.80
2023-03-24T08:37:00.146Z,2.30
2023-03-24T08:39:46.986Z,2.40
2023-03-24T08:42:33.462Z,2.00
2023-03-24T08:45:21.843Z,2.57
2023-03-24T08:48:08.932Z,2.13
2023-03-24T08:50:57.277Z,1.83
2023-03-24T08:53:43.450Z,1.80
2023-03-24T08:56:29.800Z,2.17
2023-03-24T08:59:16.111Z,1.93
2023-03-24T09:02:02.410Z,1.97
2023-03-24T09:04:49.979Z,1.90
2023-03-24T09:07:38.070Z,1.40
2023-03-24T09:10:24.529Z,1.40
2023-03-24T09:13:11.106Z,1.47
2023-03-24T09:15:59.954Z,2.17
2023-03-24T09:18:46.671Z,1.17
2023-03-24T09:21:32.765Z,1.60
2023-03-24T09:24:20.735Z,1.93
2023-03-24T09:27:06.978Z,6.80
2023-03-24T09:29:53.980Z,12.97
2023-03-24T09:32:40.486Z,2.50
2023-03-24T09:35:27.581Z,1.40
2023-03-24T09:38:13.995Z,1.40
2023-03-24T09:41:03.495Z,1.33
2023-03-24T09:43:51.761Z,1.60
2023-03-24T09:46:40.268Z,1.53
2023-03-24T09:49:29.487Z,1.37
2023-03-24T09:52:21.077Z,1.53
2023-03-24T09:55:14.494Z,1.73
2023-03-24T09:58:04.834Z,1.60
2023-03-24T10:00:51.418Z,2.17
2023-03-24T10:03:38.541Z,1.70
2023-03-24T10:06:27.057Z,1.70
2023-03-24T10:09:18.178Z,1.80
2023-03-24T10:12:10.917Z,1.73
2023-03-24T10:15:06.254Z,1.80
2023-03-24T10:17:56.269Z,2.10
2023-03-24T10:20:45.348Z,2.47
2023-03-24T10:23:35.649Z,2.67
2023-03-24T10:26:28.634Z,1.90
2023-03-24T10:29:19.466Z,2.13
2023-03-24T10:32:13.412Z,2.27
2023-03-24T10:35:07.651Z,2.03
2023-03-24T10:37:54.081Z,2.27
2023-03-24T10:40:41.926Z,2.30
2023-03-24T10:43:28.687Z,2.33
2023-03-24T10:46:16.261Z,2.40
2023-03-24T10:49:15.725Z,2.30
2023-03-24T10:52:03.959Z,1.90
2023-03-24T10:54:54.907Z,2.10
2023-03-24T10:57:44.018Z,2.50
2023-03-24T11:00:31.822Z,2.20
2023-03-24T11:03:23.548Z,2.13
2023-03-24T11:06:18.039Z,2.23
2023-03-24T11:09:12.155Z,2.00
2023-03-24T11:12:03.767Z,2.40
2023-03-24T11:14:50.389Z,2.00
2023-03-24T11:17:36.767Z,2.50
2023-03-24T11:20:27.257Z,2.43
2023-03-24T11:23:17.076Z,2.13
2023-03-24T11:26:05.340Z,2.10
2023-03-24T11:28:53.454Z,2.10
2023-03-24T11:31:40.347Z,2.27
2023-03-24T11:34:34.509Z,2.50
2023-03-24T11:37:23.014Z,2.03
2023-03-24T11:40:22.402Z,2.10
2023-03-24T11:43:20.849Z,2.13
2023-03-24T11:46:09.978Z,2.20
2023-03-24T11:48:58.989Z,2.13
2023-03-24T11:51:46.979Z,2.10
2023-03-24T11:54:35.755Z,2.20
2023-03-24T11:57:29.426Z,2.00
2023-03-24T12:00:19.431Z,2.67
2023-03-24T12:03:20.424Z,2.27
2023-03-24T12:06:12.673Z,2.03
2023-03-24T12:09:05.593Z,2.60
2023-03-24T12:12:08.074Z,2.63
2023-03-24T12:15:06.502Z,2.53
2023-03-24T12:18:04.046Z,2.40
2023-03-24T12:20:54.131Z,2.50
2023-03-24T12:23:45.830Z,2.30
2023-03-24T12:26:32.952Z,2.50
2023-03-24T12:29:36.754Z,2.40
2023-03-24T12:32:31.818Z,2.83
2023-03-24T12:35:32.234Z,2.43
2023-03-24T12:38:35.091Z,2.43
2023-03-24T12:41:30.103Z,2.60
2023-03-24T12:44:40.664Z,2.53
2023-03-24T12:47:38.648Z,3.30
2023-03-24T12:50:32.773Z,3.00
2023-03-24T12:53:36.690Z,3.00
2023-03-24T12:56:27.238Z,2.73
2023-03-24T12:59:16.005Z,3.20
2023-03-24T13:02:05.311Z,2.90
2023-03-24T13:04:54.500Z,2.57
2023-03-24T13:07:44.066Z,2.77
2023-03-24T13:10:31.014Z,3.10
2023-03-24T13:13:18.549Z,2.47
2023-03-24T13:16:06.599Z,2.63
2023-03-24T13:18:54.575Z,2.93
2023-03-24T13:21:42.828Z,2.80
2023-03-24T13:24:29.026Z,3.23
2023-03-24T13:27:17.289Z,2.90
2023-03-24T13:30:16.861Z,2.30
2023-03-24T13:33:06.141Z,2.57
2023-03-24T13:35:59.896Z,2.60
2023-03-24T13:38:49.442Z,2.73
2023-03-24T13:41:37.663Z,2.70
2023-03-24T13:44:25.685Z,2.83
2023-03-24T13:47:14.674Z,2.87
2023-03-24T13:50:02.566Z,2.80
2023-03-24T13:52:49.937Z,2.60
2023-03-24T13:55:39.377Z,2.50
2023-03-24T13:58:28.335Z,2.50
2023-03-24T14:01:20.006Z,2.30
2023-03-24T14:04:21.272Z,2.53
2023-03-24T14:07:24.692Z,2.63
2023-03-24T14:10:41.601Z,2.60
2023-03-24T14:13:47.188Z,2.47
2023-03-24T14:16:44.407Z,2.30
2023-03-24T14:19:32.122Z,2.27
2023-03-24T14:22:23.276Z,2.37
2023-03-24T14:25:21.451Z,2.33
2023-03-24T14:28:10.633Z,2.30
2023-03-24T14:31:02.153Z,2.60
2023-03-24T14:34:02.430Z,2.40
2023-03-24T14:36:59.950Z,2.43
2023-03-24T14:39:47.500Z,2.77
2023-03-24T14:42:52.625Z,2.50
2023-03-24T14:45:43.658Z,2.20
2023-03-24T14:48:33.428Z,2.20
2023-03-24T14:51:27.118Z,2.50
2023-03-24T14:54:17.524Z,1.93
2023-03-24T14:57:04.794Z,2.40
2023-03-24T14:59:53.850Z,2.63
2023-03-24T15:02:42.187Z,3.50
2023-03-24T15:05:31.664Z,3.00
2023-03-24T15:08:21.240Z,2.30
2023-03-24T15:11:08.698Z,2.83
2023-03-24T15:13:55.291Z,2.53
2023-03-24T15:16:41.793Z,2.60
2023-03-24T15:19:30.537Z,3.40
2023-03-24T15:22:19.167Z,2.47
2023-03-24T15:25:10.246Z,2.30
2023-03-24T15:27:56.832Z,2.37
2023-03-24T15:30:43.138Z,2.57
2023-03-24T15:33:31.302Z,2.30
2023-03-24T15:36:21.051Z,2.37
2023-03-24T15:39:25.515Z,2.10
2023-03-24T15:42:18.208Z,2.40
2023-03-24T15:45:09.676Z,2.60
2023-03-24T15:47:56.671Z,2.47
2023-03-24T15:50:55.780Z,2.43
2023-03-24T15:53:44.750Z,2.43
2023-03-24T15:56:34.136Z,2.67
2023-03-24T15:59:22.702Z,2.30
2023-03-24T16:02:13.564Z,2.53
2023-03-24T16:05:10.973Z,2.23
2023-03-24T16:07:58.594Z,2.53
2023-03-24T16:10:58.619Z,2.90
2023-03-24T16:13:45.768Z,2.80
2023-03-24T16:16:37.979Z,2.93
2023-03-24T16:19:24.599Z,2.43
2023-03-24T16:22:12.148Z,2.37
2023-03-24T16:24:58.347Z,3.00
2023-03-24T16:27:44.743Z,3.20
2023-03-24T16:30:31.940Z,2.80
2023-03-24T16:33:20.655Z,2.57
2023-03-24T16:36:07.530Z,2.70
2023-03-24T16:38:54.289Z,3.37
2023-03-24T16:41:40.733Z,3.60
2023-03-24T16:44:27.147Z,2.90
2023-03-24T16:47:13.738Z,3.77
2023-03-24T16:50:01.209Z,2.67
2023-03-24T16:52:47.475Z,2.50
2023-03-24T16:55:34.134Z,2.73
2023-03-24T16:58:20.283Z,3.03
2023-03-24T17:01:26.616Z,3.23
2023-03-24T17:04:14.710Z,3.40
2023-03-24T17:07:02.818Z,3.70
2023-03-24T17:09:55.111Z,3.33
2023-03-24T17:12:42.142Z,5.00
2023-03-24T17:15:28.875Z,4.43
2023-03-24T17:18:15.029Z,3.23
2023-03-24T17:21:01.567Z,4.97
2023-03-24T17:23:50.079Z,8.30
2023-03-24T17:26:36.881Z,6.97
2023-03-24T17:29:23.905Z,6.20
2023-03-24T17:32:12.447Z,7.83
2023-03-24T17:34:59.318Z,5.67
2023-03-24T17:37:46.209Z,4.30
2023-03-24T17:40:34.020Z,3.30
2023-03-24T17:43:20.350Z,3.37
2023-03-24T17:46:06.966Z,4.17
2023-03-24T17:48:53.753Z,5.77
2023-03-24T17:51:40.156Z,5.50
2023-03-24T17:54:28.187Z,6.03
2023-03-24T17:57:16.223Z,6.43
2023-03-24T18:00:02.686Z,9.00
2023-03-24T18:02:49.110Z,7.80
2023-03-24T18:05:35.561Z,7.67
2023-03-24T18:08:21.812Z,5.97
2023-03-24T18:11:09.466Z,5.90
2023-03-24T18:13:57.063Z,7.33
2023-03-24T18:16:43.608Z,6.57
2023-03-24T18:19:30.102Z,5.67
2023-03-24T18:22:16.746Z,7.30
2023-03-24T18:25:03.946Z,8.07
2023-03-24T18:27:50.703Z,7.43
2023-03-24T18:30:42.271Z,11.50
2023-03-24T18:33:31.487Z,7.10
2023-03-24T18:36:21.368Z,5.60
2023-03-24T18:39:08.652Z,4.87
2023-03-24T18:41:54.877Z,5.17
2023-03-24T18:44:41.076Z,4.67
2023-03-24T18:47:28.876Z,3.00
2023-03-24T18:50:15.767Z,3.27
2023-03-24T18:53:02.218Z,3.33
2023-03-24T18:55:50.322Z,4.50
2023-03-24T18:58:38.147Z,3.40
2023-03-24T19:01:24.596Z,3.20
2023-03-24T19:04:12.966Z,3.30
2023-03-24T19:07:00.631Z,3.27
2023-03-24T19:09:46.830Z,3.60
2023-03-24T19:12:33.271Z,3.70
2023-03-24T19:15:19.824Z,4.13
2023-03-24T19:18:06.439Z,4.23
2023-03-24T19:20:57.061Z,3.23
2023-03-24T19:23:43.496Z,3.40
2023-03-24T19:26:29.833Z,2.90
2023-03-24T19:29:16.283Z,2.93
2023-03-24T19:32:02.824Z,2.50
2023-03-24T19:34:49.211Z,4.20
2023-03-24T19:37:37.729Z,3.10
2023-03-24T19:40:24.341Z,3.80
2023-03-24T19:43:10.673Z,4.00
2023-03-24T19:45:57.247Z,3.63
2023-03-24T19:48:43.567Z,3.73
2023-03-24T19:51:30.027Z,2.87
2023-03-24T19:54:17.880Z,2.67
2023-03-24T19:57:04.193Z,3.00
2023-03-24T19:59:50.614Z,2.67
2023-03-24T20:02:37.318Z,2.80
2023-03-24T20:05:23.701Z,3.27
2023-03-24T20:08:09.993Z,2.70
2023-03-24T20:10:57.448Z,2.60
2023-03-24T20:13:44.135Z,3.20
2023-03-24T20:16:30.532Z,3.00
2023-03-24T20:19:17.184Z,2.77
2023-03-24T20:22:03.391Z,2.60
2023-03-24T20:24:50.331Z,2.40
2023-03-24T20:27:38.247Z,3.27
2023-03-24T20:30:26.289Z,2.50
2023-03-24T20:33:13.154Z,2.80
2023-03-24T20:36:00.055Z,2.60
2023-03-24T20:38:46.438Z,2.93
2023-03-24T20:41:33.156Z,2.87
2023-03-24T20:44:20.873Z,2.93
2023-03-24T20:47:06.986Z,3.13
2023-03-24T20:49:53.254Z,2.33
2023-03-24T20:52:39.595Z,2.40
2023-03-24T20:55:26.111Z,2.57
2023-03-24T20:58:12.733Z,2.20
2023-03-24T21:01:00.659Z,4.37
2023-03-24T21:03:47.165Z,2.80
2023-03-24T21:06:33.645Z,2.60
2023-03-24T21:09:22.368Z,2.43
2023-03-24T21:12:09.515Z,2.90
2023-03-24T21:14:56.048Z,2.40
2023-03-24T21:17:43.750Z,3.03
2023-03-24T21:20:30.845Z,2.80
2023-03-24T21:23:18.593Z,2.30
2023-03-24T21:26:06.038Z,3.07
2023-03-24T21:28:52.856Z,2.43
2023-03-24T21:31:41.682Z,2.73
2023-03-24T21:34:29.725Z,4.30
2023-03-24T21:37:19.725Z,2.50
2023-03-24T21:40:09.120Z,2.73
2023-03-24T21:42:55.840Z,2.50
2023-03-24T21:45:46.462Z,3.30
2023-03-24T21:48:35.011Z,2.73
2023-03-24T21:51:25.305Z,2.67
2023-03-24T21:54:14.973Z,3.20
2023-03-24T21:57:04.081Z,2.97
2023-03-24T21:59:50.382Z,3.70
2023-03-24T22:02:36.860Z,3.73
2023-03-24T22:05:24.811Z,3.60
2023-03-24T22:08:12.507Z,4.83
2023-03-24T22:10:59.607Z,4.17
2023-03-24T22:13:45.786Z,3.70
2023-03-24T22:16:33.194Z,3.83
2023-03-24T22:19:20.305Z,3.00
2023-03-24T22:22:06.933Z,3.30
2023-03-24T22:24:54.694Z,2.93
2023-03-24T22:27:41.041Z,2.93
2023-03-24T22:30:27.283Z,2.93
2023-03-24T22:33:13.572Z,3.07
2023-03-24T22:36:00.491Z,3.33
2023-03-24T22:38:46.944Z,3.07
2023-03-24T22:41:34.799Z,4.20
2023-03-24T22:44:21.122Z,2.80
2023-03-24T22:47:07.710Z,4.07
2023-03-24T22:49:54.172Z,3.43
2023-03-24T22:52:40.593Z,2.87
2023-03-24T22:55:27.233Z,3.27
2023-03-24T22:58:14.803Z,2.47
2023-03-24T23:01:02.698Z,3.13
2023-03-24T23:03:49.017Z,3.30
2023-03-24T23:06:35.209Z,3.03
2023-03-24T23:09:21.495Z,3.40
2023-03-24T23:12:07.899Z,3.20
2023-03-24T23:14:56.082Z,4.90
2023-03-24T23:17:43.148Z,3.53
2023-03-24T23:20:30.448Z,3.60
2023-03-24T23:23:16.777Z,2.77
2023-03-24T23:26:04.947Z,3.57
2023-03-24T23:28:51.850Z,3.63
2023-03-24T23:31:41.145Z,3.73
2023-03-24T23:34:27.670Z,3.17
2023-03-24T23:37:14.285Z,3.40
2023-03-24T23:40:02.569Z,3.47
2023-03-24T23:42:49.177Z,3.50
2023-03-24T23:45:35.463Z,3.30
2023-03-24T23:48:23.537Z,3.07
2023-03-24T23:51:10.025Z,3.03
2023-03-24T23:53:56.631Z,3.40
2023-03-24T23:56:47.146Z,3.20
2023-03-24T23:59:33.601Z,3.70
